Airfield :







YOU CAN JOIN US ON...

 
LOGIN :

Register | Disclaimer

   EN    FR    IT 

 









Legend :    VFR   Marginal VFR   IFR   Intensive IFR   Very Intensive IFR
Visi :
Ceiling :
>= 8 km
>= 3000ft
5 to 8 km
1000 to 3000 ft
1500m to 5 km
500 to 1000 ft
800 to 1500m
200 to 500 ft
< 800m
< 200 ft
Symbols :   Thunderstorms  Fog  Heavy snow  Heavy precipitations  Wind > 20 kt







- Airport Elevation : 133 ft
- IATA code : BED


KBED - Laurence G Hanscom Field

CURRENT METAR :
  • 190151Z 00000KT 10SM CLR 08/04 A3035 RMK AO2 SLP289 T00780039

EXPIRED METARs :
  • 190051Z 00000KT 10SM CLR 08/04 A3033 RMK AO2 SLP284 T00830044
  • 182351Z 00000KT 10SM CLR 12/04 A3031 RMK AO2 SLP278 T01170044 10189 20111 52005
  • 182251Z 08005KT 10SM CLR 14/04 A3031 RMK AO2 SLP275 T01390039

TAF KBED
Valid from the 19 at 02:00 until the 20 at 00:00 UTC


190141Z 1902/1924 00000KT P6SM SKC
FM191100 34003KT P6SM SKC
FM191400 02004KT P6SM SKC
FM191900 06004KT P6SM SKC
No reported NOTAMs for that airfield.



MET'MAP, your aeronautical weather chart ! - Copyright ORBIFLY December 2007 - Disclaimer

ORBIFLY MET'MAP TEAM :

Programming & Development : Alexandra Zaïnal
Concept & Development : Baudouin d'Aumeries
Co-Development & Prog : Marc-Olivier Méhu
Technical & hardware support : Manuel Goepfert

Contact : metmap@orbifly.com




SOURCES & CREDITS :

   NOAA